Time;durP1;ratioP1;P1;durP2;ratioP2;P2;SDS_P1;SDS_P2;PMS_P1;PMS_P2;Temp;Humidity;BMP_temperature;BMP_pressure;BME280_temperature;BME280_humidity;BME280_pressure;Samples;Min_cycle;Max_cycle;Signal;HPM_P1;HPM_P2
2022/05/22 00:04:09;;;;;;;;;;;19.20;61.30;;;;;;20749227;28;19936;-74
2022/05/22 00:14:12;;;;;;;;;;;19.20;61.20;;;;;;20749295;28;19921;-74
2022/05/22 00:24:13;;;;;;;;;;;19.20;61.20;;;;;;20731523;28;19963;-74
2022/05/22 00:34:19;;;;;;;;;;;19.20;61.20;;;;;;20730563;28;19921;-74
2022/05/22 00:44:19;;;;;;;;;;;19.10;61.20;;;;;;20729263;28;19943;-74
2022/05/22 00:54:21;;;;;;;;;;;19.10;61.20;;;;;;20728443;28;20282;-74
2022/05/22 01:04:22;;;;;;;;;;;19.10;61.20;;;;;;20711727;28;19936;-74
2022/05/22 01:14:25;;;;;;;;;;;19.10;61.20;;;;;;20727702;28;20428;-74
2022/05/22 01:24:34;;;;;;;;;;;19.10;61.20;;;;;;20726880;28;19913;-74
2022/05/22 01:34:35;;;;;;;;;;;19.10;61.20;;;;;;20710389;28;19975;-73
2022/05/22 01:44:35;;;;;;;;;;;19.00;61.10;;;;;;20742450;28;19948;-73
2022/05/22 01:54:36;;;;;;;;;;;19.10;61.10;;;;;;20724758;28;19921;-74
2022/05/22 02:04:37;;;;;;;;;;;19.00;61.10;;;;;;20724272;28;19967;-73
2022/05/22 02:14:38;;;;;;;;;;;18.90;61.00;;;;;;20739116;28;19917;-74
2022/05/22 02:24:53;;;;;;;;;;;19.00;61.00;;;;;;20725273;28;19913;-73
2022/05/22 02:34:54;;;;;;;;;;;18.90;60.90;;;;;;20707100;28;19917;-73
2022/05/22 02:44:54;;;;;;;;;;;18.90;60.90;;;;;;20723847;28;19918;-74
2022/05/22 02:54:55;;;;;;;;;;;18.80;60.80;;;;;;20738373;28;19918;-73
2022/05/22 03:04:56;;;;;;;;;;;18.90;60.80;;;;;;20721097;28;19917;-73
2022/05/22 03:14:57;;;;;;;;;;;18.80;60.70;;;;;;20721701;28;19917;-73
2022/05/22 03:25:00;;;;;;;;;;;18.90;60.70;;;;;;20712108;28;20263;-73
2022/05/22 03:35:03;;;;;;;;;;;18.80;60.60;;;;;;20735002;28;19941;-74
2022/05/22 03:45:05;;;;;;;;;;;18.80;60.60;;;;;;20734464;28;19914;-74
2022/05/22 03:55:10;;;;;;;;;;;18.80;60.60;;;;;;20734071;28;20321;-75
2022/05/22 04:05:11;;;;;;;;;;;18.70;60.50;;;;;;20748780;28;20007;-74
2022/05/22 04:15:13;;;;;;;;;;;18.70;60.50;;;;;;20731436;28;19948;-75
2022/05/22 04:25:15;;;;;;;;;;;18.70;60.50;;;;;;20714976;28;20014;-74
2022/05/22 04:35:16;;;;;;;;;;;18.70;60.40;;;;;;20730314;28;19921;-74
2022/05/22 04:45:17;;;;;;;;;;;18.70;60.40;;;;;;20745704;28;19916;-74
2022/05/22 04:55:30;;;;;;;;;;;18.70;60.40;;;;;;20730326;28;19972;-74
2022/05/22 05:05:36;;;;;;;;;;;18.70;60.40;;;;;;20743751;28;20336;-74
2022/05/22 05:15:37;;;;;;;;;;;18.70;60.50;;;;;;20744615;28;19929;-74
2022/05/22 05:25:46;;;;;;;;;;;18.70;60.50;;;;;;20727541;28;19916;-74
2022/05/22 05:35:47;;;;;;;;;;;18.70;60.50;;;;;;20741818;28;19917;-74
2022/05/22 05:46:00;;;;;;;;;;;18.70;60.60;;;;;;20740933;28;20008;-75
2022/05/22 05:56:02;;;;;;;;;;;18.70;60.60;;;;;;20740890;28;19922;-74
2022/05/22 06:06:22;;;;;;;;;;;18.70;60.60;;;;;;20710477;28;19952;-74
2022/05/22 06:16:26;;;;;;;;;;;18.70;60.70;;;;;;20739058;28;20356;-74
2022/05/22 06:26:34;;;;;;;;;;;18.80;60.80;;;;;;20723922;28;19959;-73
2022/05/22 06:36:53;;;;;;;;;;;18.80;60.80;;;;;;20740324;28;19944;-74
2022/05/22 06:47:09;;;;;;;;;;;18.80;60.90;;;;;;20724484;28;19920;-73
2022/05/22 06:57:38;;;;;;;;;;;18.80;60.90;;;;;;20732425;28;20015;-74
2022/05/22 07:07:51;;;;;;;;;;;18.90;61.00;;;;;;20738546;28;19985;-74
2022/05/22 07:18:17;;;;;;;;;;;18.80;60.90;;;;;;21183148;22;20399;-81
2022/05/22 07:28:49;;;;;;;;;;;18.90;60.90;;;;;;20811998;28;19967;-80
2022/05/22 07:39:15;;;;;;;;;;;18.80;60.80;;;;;;20812893;28;20395;-81
2022/05/22 08:00:20;;;;;;;;;;;18.90;60.80;;;;;;20810951;28;19913;-81
2022/05/22 08:10:27;;;;;;;;;;;18.90;60.80;;;;;;20789111;28;19919;-81
2022/05/22 08:20:34;;;;;;;;;;;18.80;60.70;;;;;;20806361;28;20257;-81
2022/05/22 08:30:39;;;;;;;;;;;18.90;60.70;;;;;;20818650;28;20007;-80
2022/05/22 08:40:46;;;;;;;;;;;18.90;60.70;;;;;;20818710;28;19956;-80
2022/05/22 08:50:47;;;;;;;;;;;18.90;60.60;;;;;;20834179;28;19979;-82
2022/05/22 09:00:47;;;;;;;;;;;18.80;60.50;;;;;;20784432;28;19913;-83
2022/05/22 09:10:51;;;;;;;;;;;18.90;60.60;;;;;;20814711;28;20360;-82
2022/05/22 09:20:56;;;;;;;;;;;18.90;60.50;;;;;;20800629;28;19924;-81
2022/05/22 09:31:00;;;;;;;;;;;18.90;60.30;;;;;;20798453;28;19964;-82
2022/05/22 09:41:05;;;;;;;;;;;18.80;60.20;;;;;;20814255;28;19920;-82
2022/05/22 09:51:24;;;;;;;;;;;18.90;60.20;;;;;;20779376;28;20511;-82
2022/05/22 10:01:26;;;;;;;;;;;18.90;60.10;;;;;;20811634;28;20506;-81
2022/05/22 10:11:41;;;;;;;;;;;18.80;59.90;;;;;;20795543;28;19920;-81
2022/05/22 10:21:53;;;;;;;;;;;18.90;59.90;;;;;;20778857;28;19979;-81
2022/05/22 10:32:05;;;;;;;;;;;18.80;59.70;;;;;;20799837;28;20011;-82
2022/05/22 10:52:25;;;;;;;;;;;18.90;59.40;;;;;;20827083;28;19952;-81
2022/05/22 11:02:28;;;;;;;;;;;18.80;59.10;;;;;;20794066;28;19913;-82
2022/05/22 11:12:29;;;;;;;;;;;18.80;58.90;;;;;;20824512;28;19913;-82
2022/05/22 11:22:31;;;;;;;;;;;18.90;58.70;;;;;;20824651;28;19939;-81
2022/05/22 11:32:32;;;;;;;;;;;18.90;58.50;;;;;;20824128;28;19913;-82
2022/05/22 11:42:34;;;;;;;;;;;18.90;58.20;;;;;;20805361;28;19917;-82
2022/05/22 11:52:56;;;;;;;;;;;18.80;58.00;;;;;;20789745;28;19963;-82
2022/05/22 12:03:00;;;;;;;;;;;18.80;57.80;;;;;;20805169;28;19987;-81
2022/05/22 12:13:03;;;;;;;;;;;18.90;57.70;;;;;;20837018;28;19917;-81
2022/05/22 12:23:13;;;;;;;;;;;18.90;57.60;;;;;;20818696;28;19924;-79
2022/05/22 12:33:14;;;;;;;;;;;18.90;57.70;;;;;;20799340;28;20513;-80
2022/05/22 12:43:16;;;;;;;;;;;18.90;57.90;;;;;;20800517;28;19916;-81
2022/05/22 12:53:20;;;;;;;;;;;18.90;58.10;;;;;;20815481;28;19916;-81
2022/05/22 13:03:25;;;;;;;;;;;18.90;58.10;;;;;;20815216;28;19920;-79
2022/05/22 13:13:28;;;;;;;;;;;19.00;58.00;;;;;;20780278;28;19917;-80
2022/05/22 13:23:33;;;;;;;;;;;19.00;57.90;;;;;;20795677;28;19924;-85
2022/05/22 13:33:34;;;;;;;;;;;19.10;57.70;;;;;;20778207;28;19913;-76
2022/05/22 13:43:47;;;;;;;;;;;19.20;57.60;;;;;;20808850;28;19920;-78
2022/05/22 13:53:55;;;;;;;;;;;19.30;57.60;;;;;;20826265;28;19913;-79
2022/05/22 14:03:56;;;;;;;;;;;19.40;57.60;;;;;;20793274;28;19977;-81
2022/05/22 14:13:58;;;;;;;;;;;19.50;57.40;;;;;;20811282;28;19924;-79
2022/05/22 14:34:22;;;;;;;;;;;19.60;57.20;;;;;;20810304;28;19917;-81
2022/05/22 14:44:29;;;;;;;;;;;19.70;56.70;;;;;;20772755;28;19913;-80
2022/05/22 14:54:36;;;;;;;;;;;19.80;56.00;;;;;;20720147;28;20049;-79
2022/05/22 15:04:37;;;;;;;;;;;19.90;55.60;;;;;;20766052;28;19913;-79
2022/05/22 15:14:45;;;;;;;;;;;20.00;55.70;;;;;;20821567;28;20375;-77
2022/05/22 15:35:09;;;;;;;;;;;20.20;55.50;;;;;;20804913;28;19917;-78
2022/05/22 15:45:10;;;;;;;;;;;20.20;55.60;;;;;;20805009;28;20376;-78
2022/05/22 15:55:12;;;;;;;;;;;20.20;56.40;;;;;;20800241;28;19913;-81
2022/05/22 16:05:17;;;;;;;;;;;20.20;55.60;;;;;;20802749;28;19913;-83
2022/05/22 16:15:18;;;;;;;;;;;20.10;55.70;;;;;;20818261;28;20284;-82
2022/05/22 16:25:18;;;;;;;;;;;20.10;56.00;;;;;;20818470;28;19940;-80
2022/05/22 16:35:20;;;;;;;;;;;20.00;56.40;;;;;;20801640;28;19913;-81
2022/05/22 16:45:21;;;;;;;;;;;19.90;56.70;;;;;;20780823;28;19916;-75
2022/05/22 16:55:21;;;;;;;;;;;19.90;56.90;;;;;;20812234;28;19919;-78
2022/05/22 17:05:24;;;;;;;;;;;20.00;56.50;;;;;;20778252;28;19920;-78
2022/05/22 17:15:24;;;;;;;;;;;19.90;56.50;;;;;;20827961;28;19983;-73
2022/05/22 17:25:25;;;;;;;;;;;20.00;56.50;;;;;;20832437;28;19959;-77
2022/05/22 17:35:26;;;;;;;;;;;20.10;56.50;;;;;;20790978;28;19923;-76
2022/05/22 17:45:28;;;;;;;;;;;20.10;56.50;;;;;;20804010;28;19941;-82
2022/05/22 17:55:30;;;;;;;;;;;20.10;56.60;;;;;;20789051;28;19913;-82
2022/05/22 18:05:34;;;;;;;;;;;20.00;56.70;;;;;;20792381;28;20428;-81
2022/05/22 18:25:54;;;;;;;;;;;19.90;57.20;;;;;;20804196;28;19908;-81
2022/05/22 18:35:57;;;;;;;;;;;19.80;57.40;;;;;;20723250;28;19921;-80
2022/05/22 18:45:58;;;;;;;;;;;19.80;57.50;;;;;;20768518;28;20335;-81
2022/05/22 18:56:04;;;;;;;;;;;19.80;57.70;;;;;;20831941;28;19980;-82
2022/05/22 19:06:05;;;;;;;;;;;19.80;57.80;;;;;;20812313;28;19917;-81
2022/05/22 19:16:16;;;;;;;;;;;19.70;57.90;;;;;;20798028;28;20402;-81
2022/05/22 19:26:18;;;;;;;;;;;19.70;58.00;;;;;;20815417;28;19909;-81
2022/05/22 19:36:23;;;;;;;;;;;19.70;58.20;;;;;;20785588;28;20000;-83
2022/05/22 19:46:25;;;;;;;;;;;19.70;58.30;;;;;;20790924;28;19919;-83
2022/05/22 20:06:45;;;;;;;;;;;19.50;58.50;;;;;;20818843;28;20345;-82
2022/05/22 20:16:46;;;;;;;;;;;19.60;58.70;;;;;;20802903;28;19943;-83
2022/05/22 20:26:50;;;;;;;;;;;19.50;58.70;;;;;;20802715;28;19913;-83
2022/05/22 20:36:51;;;;;;;;;;;19.50;58.80;;;;;;20801863;28;19913;-82
2022/05/22 20:46:52;;;;;;;;;;;19.50;58.90;;;;;;20817362;28;19920;-82
2022/05/22 20:56:53;;;;;;;;;;;19.50;58.90;;;;;;20800805;28;19936;-82
2022/05/22 21:06:53;;;;;;;;;;;19.40;58.90;;;;;;20816270;28;19917;-82
2022/05/22 21:16:54;;;;;;;;;;;19.40;59.00;;;;;;20799300;28;19948;-83
2022/05/22 21:37:14;;;;;;;;;;;19.40;59.00;;;;;;20813251;28;20350;-81
2022/05/22 21:47:14;;;;;;;;;;;19.40;59.10;;;;;;20796554;28;19919;-83
2022/05/22 21:57:15;;;;;;;;;;;19.40;59.10;;;;;;20811456;28;19917;-82
2022/05/22 22:07:16;;;;;;;;;;;19.40;59.20;;;;;;20779524;28;19913;-82
2022/05/22 22:17:16;;;;;;;;;;;19.30;59.10;;;;;;20795144;28;20012;-81
2022/05/22 22:27:17;;;;;;;;;;;19.30;59.20;;;;;;20802866;28;19928;-83
2022/05/22 22:37:17;;;;;;;;;;;19.30;59.20;;;;;;20838354;28;19917;-83
2022/05/22 22:47:18;;;;;;;;;;;19.30;59.30;;;;;;20822080;28;19917;-82
2022/05/22 23:07:38;;;;;;;;;;;19.30;59.40;;;;;;20840039;28;19909;-82
2022/05/22 23:17:39;;;;;;;;;;;19.20;59.40;;;;;;20835657;28;19924;-82
2022/05/22 23:27:43;;;;;;;;;;;19.20;59.50;;;;;;20853957;28;19909;-82
2022/05/22 23:37:46;;;;;;;;;;;19.20;59.50;;;;;;20814406;28;19916;-83
2022/05/22 23:47:46;;;;;;;;;;;19.20;59.60;;;;;;20805907;28;19912;-81
2022/05/22 23:57:47;;;;;;;;;;;19.20;59.60;;;;;;20804523;28;19927;-81
